Time;durP1;ratioP1;P1;durP2;ratioP2;P2;SDS_P1;SDS_P2;PMS_P1;PMS_P2;Temp;Humidity;BMP_temperature;BMP_pressure;BME280_temperature;BME280_humidity;BME280_pressure;Samples;Min_cycle;Max_cycle;Signal;HPM_P1;HPM_P2
2022/09/02 00:02:19;;;;;;;5.55;1.73;;;;;;;-145.67;100.00;66521.78;4943046;28;20039;-67
2022/09/02 00:04:45;;;;;;;3.00;1.45;;;;;;;-145.67;100.00;66521.78;4926065;28;20039;-67
2022/09/02 00:07:10;;;;;;;5.68;1.70;;;;;;;-145.67;100.00;66521.78;4922445;28;20047;-67
2022/09/02 00:09:37;;;;;;;3.17;1.63;;;;;;;-145.67;100.00;66521.78;4907115;28;20354;-66
2022/09/02 00:12:05;;;;;;;3.95;1.83;;;;;;;-145.67;100.00;66521.78;4943632;28;20031;-66
2022/09/02 00:14:34;;;;;;;4.72;1.80;;;;;;;-145.67;100.00;66521.78;4943614;28;20034;-66
2022/09/02 00:17:02;;;;;;;3.58;1.70;;;;;;;-145.67;100.00;66521.78;4926179;28;20097;-66
2022/09/02 00:19:28;;;;;;;4.55;1.67;;;;;;;-145.67;100.00;66521.78;4922541;28;20579;-66
2022/09/02 00:21:55;;;;;;;5.47;1.48;;;;;;;-145.67;100.00;66521.78;4927034;28;21003;-66
2022/09/02 00:24:21;;;;;;;5.80;1.65;;;;;;;-145.67;100.00;66521.78;4926527;28;20038;-67
2022/09/02 00:26:46;;;;;;;3.60;1.60;;;;;;;-145.67;100.00;66521.78;4942117;28;20042;-66
2022/09/02 00:29:14;;;;;;;3.65;1.65;;;;;;;-145.67;100.00;66521.78;4942213;28;20042;-68
2022/09/02 00:31:41;;;;;;;3.67;1.50;;;;;;;-145.67;100.00;66521.78;4943111;28;20045;-67
2022/09/02 00:34:07;;;;;;;3.22;1.60;;;;;;;-145.67;100.00;66521.78;4925893;28;20157;-67
2022/09/02 00:36:33;;;;;;;4.25;1.98;;;;;;;-145.67;100.00;66521.78;4922118;28;20039;-67
2022/09/02 00:39:01;;;;;;;6.25;1.90;;;;;;;-145.67;100.00;66521.78;4945519;28;20050;-65
2022/09/02 00:41:29;;;;;;;6.60;2.13;;;;;;;-145.67;100.00;66521.78;4926081;28;20035;-67
2022/09/02 00:44:01;;;;;;;5.65;1.60;;;;;;;-145.67;100.00;66521.78;4946767;28;20588;-66
2022/09/02 00:46:29;;;;;;;5.43;2.15;;;;;;;-145.67;100.00;66521.78;4930323;28;20059;-67
2022/09/02 00:49:02;;;;;;;6.00;2.25;;;;;;;-145.67;100.00;66521.78;4946140;28;20050;-66
2022/09/02 00:51:36;;;;;;;6.68;1.88;;;;;;;-145.67;100.00;66521.78;4922620;28;20056;-67
2022/09/02 00:54:05;;;;;;;4.25;1.83;;;;;;;-145.67;100.00;66521.78;4922078;28;20050;-67
2022/09/02 00:56:31;;;;;;;4.43;2.20;;;;;;;-145.67;100.00;66521.78;4944171;28;20049;-67
2022/09/02 00:58:57;;;;;;;5.07;2.20;;;;;;;-145.67;100.00;66521.78;4921503;28;20055;-66
2022/09/02 01:01:23;;;;;;;6.00;2.60;;;;;;;-145.67;100.00;66521.78;4922713;28;20036;-66
2022/09/02 01:03:49;;;;;;;5.90;2.50;;;;;;;-145.67;100.00;66521.78;4924970;28;20555;-67
2022/09/02 01:06:20;;;;;;;5.85;2.33;;;;;;;-145.67;100.00;66521.78;4921985;28;20039;-67
2022/09/02 01:09:11;;;;;;;6.95;2.15;;;;;;;-145.67;100.00;66521.78;4940934;28;20170;-65
2022/09/02 01:11:53;;;;;;;6.22;2.10;;;;;;;-145.67;100.00;66521.78;4925625;28;20054;-66
2022/09/02 01:14:19;;;;;;;6.00;2.40;;;;;;;-145.67;100.00;66521.78;4923464;28;20129;-67
2022/09/02 01:16:47;;;;;;;7.65;2.60;;;;;;;-145.67;100.00;66521.78;4942281;28;20535;-66
2022/09/02 01:19:25;;;;;;;6.88;3.00;;;;;;;-145.67;100.00;66521.78;4920563;28;20051;-67
2022/09/02 01:21:56;;;;;;;6.35;2.78;;;;;;;-145.67;100.00;66521.78;4941812;28;20452;-65
2022/09/02 01:24:26;;;;;;;5.65;2.78;;;;;;;-145.67;100.00;66521.78;4920602;28;20130;-67
2022/09/02 01:26:53;;;;;;;5.38;2.67;;;;;;;-145.67;100.00;66521.78;4941415;28;20043;-67
2022/09/02 01:29:18;;;;;;;4.93;2.13;;;;;;;-145.67;100.00;66521.78;4905336;28;20043;-67
2022/09/02 01:31:46;;;;;;;6.05;1.88;;;;;;;-145.67;100.00;66521.78;4942908;28;20177;-66
2022/09/02 01:34:12;;;;;;;4.75;2.08;;;;;;;-145.67;100.00;66521.78;4924348;28;20044;-67
2022/09/02 01:36:39;;;;;;;7.15;2.30;;;;;;;-145.67;100.00;66521.78;4942382;28;20040;-67
2022/09/02 01:39:04;;;;;;;3.92;1.90;;;;;;;-145.67;100.00;66521.78;4906455;28;20362;-68
2022/09/02 01:41:32;;;;;;;4.43;2.20;;;;;;;-145.67;100.00;66521.78;4921340;28;20625;-66
2022/09/02 01:43:57;;;;;;;5.03;1.92;;;;;;;-145.67;100.00;66521.78;4941727;28;20115;-67
2022/09/02 01:46:26;;;;;;;6.90;2.78;;;;;;;-145.67;100.00;66521.78;4922101;28;20043;-67
2022/09/02 01:48:51;;;;;;;5.22;1.85;;;;;;;-145.67;100.00;66521.78;4939946;28;20044;-67
2022/09/02 01:51:19;;;;;;;5.13;1.98;;;;;;;-145.67;100.00;66521.78;4929147;28;20035;-67
2022/09/02 01:53:44;;;;;;;2.38;1.50;;;;;;;-145.67;100.00;66521.78;4908104;28;20094;-67
2022/09/02 01:56:10;;;;;;;5.95;1.98;;;;;;;-145.67;100.00;66521.78;4945061;28;21022;-67
2022/09/02 01:58:35;;;;;;;4.35;1.90;;;;;;;-145.67;100.00;66521.78;4944611;28;20380;-67
2022/09/02 02:01:01;;;;;;;3.72;1.83;;;;;;;-145.67;100.00;66521.78;4944744;28;20641;-66
2022/09/02 02:03:27;;;;;;;2.38;1.40;;;;;;;-145.67;100.00;66521.78;4943851;28;20038;-66
2022/09/02 02:05:52;;;;;;;3.70;1.60;;;;;;;-145.67;100.00;66521.78;4944262;28;21824;-67
2022/09/02 02:08:18;;;;;;;5.90;1.60;;;;;;;-145.67;100.00;66521.78;4944213;28;20069;-67
2022/09/02 02:10:43;;;;;;;4.35;1.30;;;;;;;-145.67;100.00;66521.78;4925295;28;20035;-68
2022/09/02 02:13:09;;;;;;;2.35;1.30;;;;;;;-145.67;100.00;66521.78;4930577;28;20490;-67
2022/09/02 02:15:39;;;;;;;4.90;1.60;;;;;;;-145.67;100.00;66521.78;4943293;28;20047;-68
2022/09/02 02:18:04;;;;;;;2.50;1.30;;;;;;;-145.67;100.00;66521.78;4942442;28;20150;-67
2022/09/02 02:20:30;;;;;;;4.28;1.40;;;;;;;-145.67;100.00;66521.78;4944295;28;20136;-68
2022/09/02 02:22:55;;;;;;;5.30;1.50;;;;;;;-145.67;100.00;66521.78;4927936;28;20598;-66
2022/09/02 02:25:21;;;;;;;3.92;1.30;;;;;;;-145.67;100.00;66521.78;4943457;28;20129;-67
2022/09/02 02:27:50;;;;;;;2.15;1.25;;;;;;;-145.67;100.00;66521.78;4943859;28;20050;-67
2022/09/02 02:30:15;;;;;;;4.50;1.55;;;;;;;-145.67;100.00;66521.78;4924713;28;20045;-68
2022/09/02 02:32:41;;;;;;;3.58;1.50;;;;;;;-145.67;100.00;66521.78;4942712;28;20035;-66
2022/09/02 02:35:07;;;;;;;3.97;1.63;;;;;;;-145.67;100.00;66521.78;4927776;28;20038;-67
2022/09/02 02:37:33;;;;;;;6.07;1.50;;;;;;;-145.67;100.00;66521.78;4924371;28;21165;-67
2022/09/02 02:40:01;;;;;;;3.65;1.90;;;;;;;-145.67;100.00;66521.78;4944605;28;20097;-68
2022/09/02 02:42:31;;;;;;;5.35;1.90;;;;;;;-145.67;100.00;66521.78;4943866;28;20035;-68
2022/09/02 02:44:57;;;;;;;2.38;1.30;;;;;;;-145.67;100.00;66521.78;4920920;28;20081;-67
2022/09/02 02:47:23;;;;;;;4.65;1.67;;;;;;;-145.67;100.00;66521.78;4945491;28;20134;-67
2022/09/02 02:49:49;;;;;;;4.25;1.67;;;;;;;-145.67;100.00;66521.78;4927966;28;20063;-66
2022/09/02 02:52:14;;;;;;;5.60;1.75;;;;;;;-145.67;100.00;66521.78;4926463;28;20051;-66
2022/09/02 02:54:40;;;;;;;4.50;2.00;;;;;;;-145.67;100.00;66521.78;4945735;28;20121;-67
2022/09/02 02:57:07;;;;;;;3.75;1.77;;;;;;;-145.67;100.00;66521.78;4942878;28;20074;-67
2022/09/02 02:59:32;;;;;;;5.88;1.90;;;;;;;-145.67;100.00;66521.78;4927710;28;20054;-66
2022/09/02 03:02:00;;;;;;;2.90;1.80;;;;;;;-145.67;100.00;66521.78;4943378;28;20039;-67
2022/09/02 03:04:31;;;;;;;4.97;1.95;;;;;;;-145.67;100.00;66521.78;4928633;28;20628;-67
2022/09/02 03:06:57;;;;;;;4.40;1.85;;;;;;;-145.67;100.00;66521.78;4937170;28;20108;-66
2022/09/02 03:09:22;;;;;;;3.53;2.03;;;;;;;-145.67;100.00;66521.78;4944064;28;20034;-67
2022/09/02 03:11:48;;;;;;;4.78;1.83;;;;;;;-145.67;100.00;66521.78;4944174;28;20114;-67
2022/09/02 03:14:14;;;;;;;5.38;2.95;;;;;;;-145.67;100.00;66521.78;4944459;28;20042;-67
2022/09/02 03:16:40;;;;;;;7.60;3.25;;;;;;;-145.67;100.00;66521.78;4943280;28;20667;-67
2022/09/02 03:19:05;;;;;;;9.18;4.25;;;;;;;-145.67;100.00;66521.78;4944209;28;21135;-68
2022/09/02 03:21:31;;;;;;;11.68;5.15;;;;;;;-145.67;100.00;66521.78;4943189;28;20364;-67
2022/09/02 03:23:56;;;;;;;9.77;4.47;;;;;;;-145.67;100.00;66521.78;4928319;28;20129;-67
2022/09/02 03:26:24;;;;;;;8.23;3.92;;;;;;;-145.67;100.00;66521.78;4943788;28;20039;-67
2022/09/02 03:28:54;;;;;;;7.38;2.88;;;;;;;-145.67;100.00;66521.78;4939264;28;20038;-67
2022/09/02 03:31:23;;;;;;;5.80;2.58;;;;;;;-145.67;100.00;66521.78;4943560;28;20057;-67
2022/09/02 03:33:49;;;;;;;5.03;2.45;;;;;;;-145.67;100.00;66521.78;4944514;28;20122;-67
2022/09/02 03:36:30;;;;;;;5.97;2.00;;;;;;;-145.67;100.00;66521.78;4921043;28;20039;-68
2022/09/02 03:38:56;;;;;;;6.53;2.40;;;;;;;-145.67;100.00;66521.78;4923784;28;20120;-67
2022/09/02 03:41:24;;;;;;;5.55;1.90;;;;;;;-145.67;100.00;66521.78;4944025;28;20035;-66
2022/09/02 03:43:50;;;;;;;6.55;2.20;;;;;;;-145.67;100.00;66521.78;4911136;28;20035;-66
2022/09/02 03:46:18;;;;;;;7.70;2.20;;;;;;;-145.67;100.00;66521.78;4942900;28;20125;-68
2022/09/02 03:48:44;;;;;;;9.70;2.20;;;;;;;-145.67;100.00;66521.78;4927401;28;20051;-67
2022/09/02 03:51:09;;;;;;;5.38;2.10;;;;;;;-145.67;100.00;66521.78;4943589;28;20031;-66
2022/09/02 03:53:35;;;;;;;5.82;1.70;;;;;;;-145.67;100.00;66521.78;4944315;28;20039;-67
2022/09/02 03:56:10;;;;;;;4.78;1.60;;;;;;;-145.67;100.00;66521.78;4927515;28;20037;-67
2022/09/02 03:58:42;;;;;;;2.28;1.42;;;;;;;-145.67;100.00;66521.78;4922285;28;20039;-67
2022/09/02 04:01:18;;;;;;;4.22;1.80;;;;;;;-145.67;100.00;66521.78;4924428;28;20035;-66
2022/09/02 04:03:46;;;;;;;4.28;1.75;;;;;;;-145.67;100.00;66521.78;4944183;28;20042;-67
2022/09/02 04:06:14;;;;;;;3.67;1.48;;;;;;;-145.67;100.00;66521.78;4941888;28;20043;-68
2022/09/02 04:08:42;;;;;;;2.13;1.40;;;;;;;-145.67;100.00;66521.78;4943619;28;20037;-65
2022/09/02 04:11:15;;;;;;;3.22;1.48;;;;;;;-145.67;100.00;66521.78;4922504;28;20361;-67
2022/09/02 04:13:43;;;;;;;3.25;1.40;;;;;;;-145.67;100.00;66521.78;4942830;28;20038;-67
2022/09/02 04:16:19;;;;;;;2.80;1.27;;;;;;;-145.67;100.00;66521.78;4936869;28;20980;-68
2022/09/02 04:18:44;;;;;;;5.45;1.55;;;;;;;-145.67;100.00;66521.78;4944154;28;20419;-66
2022/09/02 04:21:12;;;;;;;4.15;1.40;;;;;;;-145.67;100.00;66521.78;4926307;28;20043;-67
2022/09/02 04:23:38;;;;;;;4.18;1.30;;;;;;;-145.67;100.00;66521.78;4919807;28;20038;-66
2022/09/02 04:26:06;;;;;;;2.95;1.48;;;;;;;-145.67;100.00;66521.78;4922667;28;20580;-67
2022/09/02 04:28:31;;;;;;;2.80;1.40;;;;;;;-145.67;100.00;66521.78;4942483;28;20047;-67
2022/09/02 04:30:57;;;;;;;5.80;1.33;;;;;;;-145.67;100.00;66521.78;4925654;28;20039;-67
2022/09/02 04:33:22;;;;;;;3.13;1.50;;;;;;;-145.67;100.00;66521.78;4942712;28;20097;-66
2022/09/02 04:35:51;;;;;;;4.88;1.40;;;;;;;-145.67;100.00;66521.78;4922566;28;20035;-67
2022/09/02 04:38:16;;;;;;;5.75;1.50;;;;;;;-145.67;100.00;66521.78;4943439;28;20481;-66
2022/09/02 04:40:45;;;;;;;3.05;1.45;;;;;;;-145.67;100.00;66521.78;4941997;28;20110;-67
2022/09/02 04:43:14;;;;;;;6.78;2.05;;;;;;;-145.67;100.00;66521.78;4921407;28;20085;-66
2022/09/02 04:45:41;;;;;;;6.88;1.48;;;;;;;-145.67;100.00;66521.78;4924926;28;20035;-66
2022/09/02 04:48:09;;;;;;;3.15;1.30;;;;;;;-145.67;100.00;66521.78;4936094;28;20066;-65
2022/09/02 04:50:36;;;;;;;3.25;1.50;;;;;;;-145.67;100.00;66521.78;4919319;28;20122;-66
2022/09/02 04:53:02;;;;;;;2.45;1.50;;;;;;;-145.67;100.00;66521.78;4918259;28;20474;-67
2022/09/02 04:55:31;;;;;;;3.88;1.30;;;;;;;-145.67;100.00;66521.78;4938969;28;20227;-67
2022/09/02 04:58:00;;;;;;;3.95;1.52;;;;;;;-145.67;100.00;66521.78;4924722;28;20051;-67
2022/09/02 05:00:28;;;;;;;3.85;1.48;;;;;;;-145.67;100.00;66521.78;4939760;28;20042;-67
2022/09/02 05:02:56;;;;;;;2.90;1.40;;;;;;;-145.67;100.00;66521.78;4943426;28;20121;-66
2022/09/02 05:05:24;;;;;;;2.42;1.50;;;;;;;-145.67;100.00;66521.78;4943569;28;20150;-66
2022/09/02 05:07:49;;;;;;;3.45;1.50;;;;;;;-145.67;100.00;66521.78;4907586;28;20038;-66
2022/09/02 05:10:15;;;;;;;3.25;1.58;;;;;;;-145.67;100.00;66521.78;4944040;28;20058;-66
2022/09/02 05:12:45;;;;;;;5.35;1.48;;;;;;;-145.67;100.00;66521.78;4943589;28;20031;-67
2022/09/02 05:15:14;;;;;;;4.32;1.70;;;;;;;-145.67;100.00;66521.78;4930595;28;20152;-66
2022/09/02 05:17:41;;;;;;;5.32;1.40;;;;;;;-145.67;100.00;66521.78;4943774;28;20385;-66
2022/09/02 05:20:09;;;;;;;7.47;1.50;;;;;;;-145.67;100.00;66521.78;4925991;28;20043;-67
2022/09/02 05:22:35;;;;;;;5.63;1.50;;;;;;;-145.67;100.00;66521.78;4940771;28;22185;-67
2022/09/02 05:25:01;;;;;;;3.50;1.30;;;;;;;-145.67;100.00;66521.78;4908611;28;20034;-66
2022/09/02 05:27:27;;;;;;;4.10;1.58;;;;;;;-145.67;100.00;66521.78;4926600;28;20212;-66
2022/09/02 05:29:58;;;;;;;3.97;1.40;;;;;;;-145.67;100.00;66521.78;4927343;28;20089;-67
2022/09/02 05:32:24;;;;;;;7.38;2.00;;;;;;;-145.67;100.00;66521.78;4945196;28;20034;-67
2022/09/02 05:34:50;;;;;;;2.28;1.27;;;;;;;-145.67;100.00;66521.78;4945139;28;20031;-68
2022/09/02 05:37:18;;;;;;;2.38;1.40;;;;;;;-145.67;100.00;66521.78;4946325;28;20629;-67
2022/09/02 05:39:46;;;;;;;2.95;1.65;;;;;;;-145.67;100.00;66521.78;4909961;28;20050;-68
2022/09/02 05:42:12;;;;;;;3.28;1.55;;;;;;;-145.67;100.00;66521.78;4925091;28;20047;-67
2022/09/02 05:44:37;;;;;;;4.20;1.33;;;;;;;-145.67;100.00;66521.78;4945122;28;20054;-67
2022/09/02 05:47:05;;;;;;;5.97;1.60;;;;;;;-145.67;100.00;66521.78;4930585;28;20038;-67
2022/09/02 05:49:31;;;;;;;2.53;1.52;;;;;;;-145.67;100.00;66521.78;4944743;28;20098;-67
2022/09/02 05:51:58;;;;;;;5.20;1.65;;;;;;;-145.67;100.00;66521.78;4927637;28;20113;-66
2022/09/02 05:54:29;;;;;;;3.17;1.73;;;;;;;-145.67;100.00;66521.78;4945504;28;20042;-67
2022/09/02 05:56:57;;;;;;;4.93;1.40;;;;;;;-145.67;100.00;66521.78;4928811;28;20035;-67
2022/09/02 05:59:25;;;;;;;5.65;1.60;;;;;;;-145.67;100.00;66521.78;4924063;28;20844;-68
2022/09/02 06:01:52;;;;;;;3.97;1.33;;;;;;;-145.67;100.00;66521.78;4943794;28;20042;-68
2022/09/02 06:04:17;;;;;;;4.57;1.50;;;;;;;-145.67;100.00;66521.78;4926524;28;20067;-66
2022/09/02 06:06:42;;;;;;;5.35;1.67;;;;;;;-145.67;100.00;66521.78;4943278;28;20031;-67
2022/09/02 06:09:12;;;;;;;6.63;1.92;;;;;;;-145.67;100.00;66521.78;4927462;28;20035;-67
2022/09/02 06:11:39;;;;;;;3.75;1.60;;;;;;;-145.67;100.00;66521.78;4921834;28;20031;-68
2022/09/02 06:14:07;;;;;;;5.43;1.58;;;;;;;-145.67;100.00;66521.78;4942440;28;20042;-66
2022/09/02 06:16:33;;;;;;;4.65;1.60;;;;;;;-145.67;100.00;66521.78;4943184;28;20035;-67
2022/09/02 06:18:59;;;;;;;5.38;1.70;;;;;;;-145.67;100.00;66521.78;4922515;28;20116;-69
2022/09/02 06:21:24;;;;;;;7.40;1.50;;;;;;;-145.67;100.00;66521.78;4924824;28;20043;-66
2022/09/02 06:23:49;;;;;;;3.13;1.58;;;;;;;-145.67;100.00;66521.78;4943687;28;20121;-66
2022/09/02 06:26:17;;;;;;;8.98;1.50;;;;;;;-145.67;100.00;66521.78;4921885;28;20035;-67
2022/09/02 06:28:43;;;;;;;4.75;1.40;;;;;;;-145.67;100.00;66521.78;4922380;28;20052;-67
2022/09/02 06:31:11;;;;;;;4.55;1.48;;;;;;;-145.67;100.00;66521.78;4942625;28;20130;-67
2022/09/02 06:33:37;;;;;;;5.68;2.15;;;;;;;-145.67;100.00;66521.78;4920940;28;20677;-66
2022/09/02 06:36:11;;;;;;;4.03;1.60;;;;;;;-145.67;100.00;66521.78;4942960;28;20035;-67
2022/09/02 06:38:38;;;;;;;4.15;1.60;;;;;;;-145.67;100.00;66521.78;4941144;28;20035;-66
2022/09/02 06:41:04;;;;;;;3.00;1.55;;;;;;;-145.67;100.00;66521.78;4938285;28;20492;-66
2022/09/02 06:43:31;;;;;;;4.30;1.23;;;;;;;-145.67;100.00;66521.78;4943365;28;20050;-67
2022/09/02 06:45:57;;;;;;;2.45;1.40;;;;;;;-145.67;100.00;66521.78;4927565;28;20043;-68
2022/09/02 06:48:22;;;;;;;4.55;1.60;;;;;;;-145.67;100.00;66521.78;4942739;28;20125;-68
2022/09/02 06:50:48;;;;;;;3.85;1.25;;;;;;;-145.67;100.00;66521.78;4944566;28;20407;-67
2022/09/02 06:53:13;;;;;;;2.25;1.30;;;;;;;-145.67;100.00;66521.78;4926531;28;20162;-67
2022/09/02 06:55:44;;;;;;;5.20;1.60;;;;;;;-145.67;100.00;66521.78;4941729;28;20179;-67
2022/09/02 06:58:11;;;;;;;2.85;1.23;;;;;;;-145.67;100.00;66521.78;4942581;28;20123;-65
2022/09/02 07:00:39;;;;;;;4.53;1.45;;;;;;;-145.67;100.00;66521.78;4942259;28;20050;-66
2022/09/02 07:06:08;;;;;;;1.88;1.20;;;;;;;-145.67;100.00;66521.78;4943107;28;20031;-66
2022/09/02 07:08:41;;;;;;;3.78;1.50;;;;;;;-145.67;100.00;66521.78;4921543;28;20431;-66
2022/09/02 07:11:14;;;;;;;3.88;1.45;;;;;;;-145.67;100.00;66521.78;4942752;28;20100;-67
2022/09/02 07:13:40;;;;;;;5.45;1.45;;;;;;;-145.67;100.00;66521.78;4923764;28;20034;-67
2022/09/02 07:16:06;;;;;;;5.13;1.30;;;;;;;-145.67;100.00;66521.78;4930229;28;20061;-68
2022/09/02 07:18:32;;;;;;;5.00;1.48;;;;;;;-145.67;100.00;66521.78;4942073;28;20027;-67
2022/09/02 07:20:58;;;;;;;5.45;1.27;;;;;;;-145.67;100.00;66521.78;4943187;28;20568;-67
2022/09/02 07:23:23;;;;;;;4.13;1.20;;;;;;;-145.67;100.00;66521.78;4905194;28;20133;-67
2022/09/02 07:25:54;;;;;;;4.32;1.58;;;;;;;-145.67;100.00;66521.78;4942241;28;20061;-69
2022/09/02 07:28:20;;;;;;;1.73;1.02;;;;;;;-145.67;100.00;66521.78;4921545;28;20061;-67
2022/09/02 07:30:46;;;;;;;4.40;1.23;;;;;;;-145.67;100.00;66521.78;4943235;28;20030;-67
2022/09/02 07:33:14;;;;;;;2.63;1.02;;;;;;;-145.67;100.00;66521.78;4939893;28;20045;-68
2022/09/02 07:35:44;;;;;;;3.97;1.40;;;;;;;-145.67;100.00;66521.78;4920429;28;20042;-68
2022/09/02 07:38:10;;;;;;;2.70;1.20;;;;;;;-145.67;100.00;66521.78;4925257;28;20050;-66
2022/09/02 07:40:38;;;;;;;4.65;1.30;;;;;;;-145.67;100.00;66521.78;4942942;28;20608;-68
2022/09/02 07:43:05;;;;;;;5.80;1.17;;;;;;;-145.67;100.00;66521.78;4940643;28;20126;-66
2022/09/02 07:45:31;;;;;;;3.85;1.10;;;;;;;-145.67;100.00;66521.78;4921414;28;20038;-67
2022/09/02 07:48:01;;;;;;;2.03;1.00;;;;;;;-145.67;100.00;66521.78;4941261;28;20105;-67
2022/09/02 07:50:27;;;;;;;3.22;1.00;;;;;;;-145.67;100.00;66521.78;4939602;28;20046;-67
2022/09/02 07:52:54;;;;;;;5.20;1.20;;;;;;;-145.67;100.00;66521.78;4923393;28;20055;-73
2022/09/02 07:55:21;;;;;;;4.78;1.20;;;;;;;-145.67;100.00;66521.78;4924179;28;20480;-72
2022/09/02 07:57:47;;;;;;;2.72;0.95;;;;;;;-145.67;100.00;66521.78;4921151;28;20038;-73
2022/09/02 08:00:13;;;;;;;6.05;1.17;;;;;;;-145.67;100.00;66521.78;4924524;28;20043;-73
2022/09/02 08:02:39;;;;;;;4.40;1.40;;;;;;;-145.67;100.00;66521.78;4943084;28;20835;-71
2022/09/02 08:05:04;;;;;;;7.85;1.50;;;;;;;-145.67;100.00;66521.78;4891160;28;20137;-72
2022/09/02 08:07:31;;;;;;;3.38;1.38;;;;;;;-145.67;100.00;66521.78;4945098;28;20038;-72
2022/09/02 08:09:59;;;;;;;5.43;1.50;;;;;;;-145.67;100.00;66521.78;4944441;28;20526;-72
2022/09/02 08:12:25;;;;;;;2.17;1.25;;;;;;;-145.67;100.00;66521.78;4926847;28;20107;-72
2022/09/02 08:14:51;;;;;;;4.40;1.30;;;;;;;-145.67;100.00;66521.78;4941971;28;21884;-72
2022/09/02 08:17:16;;;;;;;3.53;1.42;;;;;;;-145.67;100.00;66521.78;4941627;28;20054;-73
2022/09/02 08:19:43;;;;;;;4.47;1.42;;;;;;;-145.67;100.00;66521.78;4920168;28;20149;-71
2022/09/02 08:22:08;;;;;;;6.72;1.40;;;;;;;-145.67;100.00;66521.78;4928410;28;20027;-72
2022/09/02 08:24:34;;;;;;;4.97;1.40;;;;;;;-145.67;100.00;66521.78;4942809;28;20103;-72
2022/09/02 08:27:00;;;;;;;5.18;1.40;;;;;;;-145.67;100.00;66521.78;4927510;28;20093;-72
2022/09/02 08:29:27;;;;;;;5.05;1.30;;;;;;;-145.67;100.00;66521.78;4942584;28;20045;-73
2022/09/02 08:31:53;;;;;;;3.83;1.30;;;;;;;-145.67;100.00;66521.78;4942850;28;20028;-71
2022/09/02 08:34:20;;;;;;;2.70;1.40;;;;;;;-145.67;100.00;66521.78;4940887;28;20058;-72
2022/09/02 08:36:45;;;;;;;4.40;1.45;;;;;;;-145.67;100.00;66521.78;4924547;28;20074;-72
2022/09/02 08:39:11;;;;;;;4.00;1.48;;;;;;;-145.67;100.00;66521.78;4940736;28;20085;-72
2022/09/02 08:42:14;;;;;;;4.90;1.38;;;;;;;-145.67;100.00;66521.78;4941163;28;20476;-72
2022/09/02 08:44:40;;;;;;;3.70;1.35;;;;;;;-145.67;100.00;66521.78;4924931;28;20054;-72
2022/09/02 08:47:11;;;;;;;6.75;1.60;;;;;;;-145.67;100.00;66521.78;4925759;28;20047;-71
2022/09/02 08:50:09;;;;;;;4.38;1.40;;;;;;;-145.67;100.00;66521.78;4923688;28;20675;-71
2022/09/02 08:52:40;;;;;;;2.80;1.65;;;;;;;-145.67;100.00;66521.78;4916944;28;20055;-71
2022/09/02 08:55:13;;;;;;;3.35;1.23;;;;;;;-145.67;100.00;66521.78;4942514;28;20043;-73
2022/09/02 08:57:39;;;;;;;3.17;1.38;;;;;;;-145.67;100.00;66521.78;4924628;28;20058;-72
2022/09/02 09:00:05;;;;;;;2.47;1.25;;;;;;;-145.67;100.00;66521.78;4924477;28;20058;-73
2022/09/02 09:02:41;;;;;;;3.90;1.60;;;;;;;-145.67;100.00;66521.78;4946364;28;20402;-73
2022/09/02 09:05:54;;;;;;;6.57;1.70;;;;;;;-145.67;100.00;66521.78;4944154;28;20646;-72
2022/09/02 09:08:29;;;;;;;4.30;1.50;;;;;;;-145.67;100.00;66521.78;4943724;28;20789;-72
2022/09/02 09:10:55;;;;;;;7.38;1.67;;;;;;;-145.67;100.00;66521.78;4943931;28;20110;-72
2022/09/02 09:13:42;;;;;;;4.07;1.80;;;;;;;-145.67;100.00;66521.78;4944514;28;20042;-73
2022/09/02 09:16:40;;;;;;;4.88;1.50;;;;;;;-145.67;100.00;66521.78;4946755;28;20031;-72
2022/09/02 09:19:32;;;;;;;3.55;1.48;;;;;;;-145.67;100.00;66521.78;4928342;28;21131;-72
2022/09/02 09:22:02;;;;;;;5.57;1.55;;;;;;;-145.67;100.00;66521.78;4948682;28;20047;-72
2022/09/02 09:24:39;;;;;;;3.72;1.50;;;;;;;-145.67;100.00;66521.78;4932304;28;20045;-72
2022/09/02 09:27:14;;;;;;;5.95;2.03;;;;;;;-145.67;100.00;66521.78;4935545;28;20031;-73
2022/09/02 09:29:40;;;;;;;6.95;1.58;;;;;;;-145.67;100.00;66521.78;4931379;28;20078;-72
2022/09/02 09:32:32;;;;;;;4.80;1.60;;;;;;;-145.67;100.00;66521.78;4950812;28;20514;-71
2022/09/02 09:35:01;;;;;;;6.38;1.80;;;;;;;-145.67;100.00;66521.78;4946010;28;20122;-71
2022/09/02 09:37:31;;;;;;;4.22;1.50;;;;;;;-145.67;100.00;66521.78;4928479;28;20042;-71
2022/09/02 09:39:59;;;;;;;2.70;1.58;;;;;;;-145.67;100.00;66521.78;4946816;28;20047;-72
2022/09/02 09:42:36;;;;;;;2.38;1.45;;;;;;;-145.67;100.00;66521.78;4945195;28;22032;-72
2022/09/02 09:45:40;;;;;;;2.55;1.50;;;;;;;-145.67;100.00;66521.78;4929903;28;20038;-74
2022/09/02 09:48:15;;;;;;;3.55;1.50;;;;;;;-145.67;100.00;66521.78;4928922;28;20050;-74
2022/09/02 09:50:45;;;;;;;4.72;1.55;;;;;;;-145.67;100.00;66521.78;4943892;28;20071;-73
2022/09/02 09:53:25;;;;;;;5.75;1.65;;;;;;;-145.67;100.00;66521.78;4945621;28;20061;-74
2022/09/02 09:55:55;;;;;;;4.88;1.52;;;;;;;-145.67;100.00;66521.78;4944996;28;20799;-72
2022/09/02 09:58:22;;;;;;;7.07;1.60;;;;;;;-145.67;100.00;66521.78;4945972;28;20042;-73
2022/09/02 10:00:47;;;;;;;4.85;1.70;;;;;;;-145.67;100.00;66521.78;4925254;28;20043;-75
2022/09/02 10:03:22;;;;;;;4.32;1.70;;;;;;;-145.67;100.00;66521.78;4944284;28;20108;-72
2022/09/02 10:05:54;;;;;;;3.55;1.70;;;;;;;-145.67;100.00;66521.78;4939716;28;20110;-74
2022/09/02 10:08:24;;;;;;;3.30;1.80;;;;;;;-145.67;100.00;66521.78;4962085;28;20042;-73
2022/09/02 10:11:19;;;;;;;6.47;1.90;;;;;;;-145.67;100.00;66521.78;4958114;28;20031;-72
2022/09/02 10:13:45;;;;;;;6.43;1.55;;;;;;;-145.67;100.00;66521.78;4963403;28;20023;-73
2022/09/02 10:16:48;;;;;;;5.97;1.90;;;;;;;-145.67;100.00;66521.78;4945045;28;20039;-73
2022/09/02 10:19:27;;;;;;;6.18;1.85;;;;;;;-145.67;100.00;66521.78;4960091;28;20583;-73
2022/09/02 10:21:56;;;;;;;6.88;1.85;;;;;;;-145.67;100.00;66521.78;4943891;28;20084;-72
2022/09/02 10:24:54;;;;;;;3.90;1.55;;;;;;;-145.67;100.00;66521.78;4942959;28;20054;-74
2022/09/02 10:27:28;;;;;;;5.68;1.67;;;;;;;-145.67;100.00;66521.78;4890150;28;20035;-73
2022/09/02 10:29:58;;;;;;;7.40;1.98;;;;;;;-145.67;100.00;66521.78;4939802;28;20393;-70
2022/09/02 10:32:35;;;;;;;7.90;1.90;;;;;;;-145.67;100.00;66521.78;4917440;28;20093;-71
2022/09/02 10:35:11;;;;;;;5.40;1.98;;;;;;;-145.67;100.00;66521.78;4943749;28;20041;-70
2022/09/02 10:37:44;;;;;;;2.88;1.85;;;;;;;-145.67;100.00;66521.78;4923323;28;20035;-71
2022/09/02 10:40:18;;;;;;;4.85;1.83;;;;;;;-145.67;100.00;66521.78;4930038;28;20047;-69
2022/09/02 10:43:06;;;;;;;6.13;2.03;;;;;;;-145.67;100.00;66521.78;4925218;28;20101;-70
2022/09/02 10:45:50;;;;;;;4.18;1.70;;;;;;;-145.67;100.00;66521.78;4926830;28;20097;-70
2022/09/02 10:48:42;;;;;;;8.57;1.80;;;;;;;-145.67;100.00;66521.78;4926816;28;20133;-71
2022/09/02 10:51:28;;;;;;;5.90;1.75;;;;;;;-145.67;100.00;66521.78;4942028;28;20508;-71
2022/09/02 10:54:14;;;;;;;7.95;2.85;;;;;;;-145.67;100.00;66521.78;4943593;28;20031;-71
2022/09/02 10:56:45;;;;;;;5.47;1.80;;;;;;;-145.67;100.00;66521.78;4942836;28;20031;-71
2022/09/02 10:59:18;;;;;;;3.72;2.10;;;;;;;-145.67;100.00;66521.78;4940645;28;20133;-71
2022/09/02 11:01:50;;;;;;;6.55;1.98;;;;;;;-145.67;100.00;66521.78;4922584;28;20029;-72
2022/09/02 11:04:26;;;;;;;4.55;1.90;;;;;;;-145.67;100.00;66521.78;4942489;28;20077;-74
2022/09/02 11:06:54;;;;;;;5.43;1.85;;;;;;;-145.67;100.00;66521.78;4948702;28;20035;-77
2022/09/02 11:09:32;;;;;;;6.32;1.88;;;;;;;-145.67;100.00;66521.78;4941097;28;20038;-73
2022/09/02 11:12:06;;;;;;;4.60;1.85;;;;;;;-145.67;100.00;66521.78;4939640;28;20035;-76
2022/09/02 11:14:53;;;;;;;5.03;1.90;;;;;;;-145.67;100.00;66521.78;4937923;28;20038;-78
2022/09/02 11:17:24;;;;;;;3.63;1.60;;;;;;;-145.67;100.00;66521.78;4938771;28;20093;-75
2022/09/02 11:20:02;;;;;;;5.20;2.10;;;;;;;-145.67;100.00;66521.78;4946763;28;20046;-78
2022/09/02 11:22:38;;;;;;;6.15;2.05;;;;;;;-145.67;100.00;66521.78;4969831;28;20412;-76
2022/09/02 11:25:40;;;;;;;4.70;2.10;;;;;;;-145.67;100.00;66521.78;4961500;28;20068;-76